SUR6183 SKRG-SCEL
Flight info
| Callsign | SUR6183 |
|---|---|
| Flight time | 5h 21m |
| Altitude | 32000 |
| Route | RNG UP530 BOG UL300 IQT/N0469F330 UL300 OGMAS/N0465F350 UL300 ARI UV204 VADIX UT295 NENAT UQ803 ISGUD UL302 SIMOK SIMOK7B |
| Aircraft | B738/M-SDE2E3FGHIRWXY/LB1 |
Departure
| Time | 2026-04-25 16:18 |
|---|---|
| Airport | Jose Maria Córdova International Airport (SKRG) |
Arrival
| Time | 2026-04-25 21:40 |
|---|---|
| Airport | Comodoro Arturo Merino Benítez International Airport (SCEL) |
| Time | Latitude | Longitude | Altitude | Speed | Heading |
|---|---|---|---|---|---|
| 2026-04-25 15:39 | 6.17096 | -75.42674 | 6991 ft | 0 kts | 277° |
| 2026-04-25 16:05 | 6.17093 | -75.42655 | 6989 ft | 2 kts | 277° |
| 2026-04-25 16:06 | 6.17092 | -75.42641 | 6989 ft | 2 kts | 277° |
| 2026-04-25 16:06 | 6.17089 | -75.42625 | 6989 ft | 2 kts | 291° |
| 2026-04-25 16:06 | 6.17082 | -75.42612 | 6988 ft | 2 kts | 311° |
| 2026-04-25 16:06 | 6.17074 | -75.42605 | 6988 ft | 0 kts | 326° |
| 2026-04-25 16:07 | 6.17067 | -75.42602 | 6988 ft | 0 kts | 329° |
| 2026-04-25 16:11 | 6.17076 | -75.42606 | 6988 ft | 5 kts | 331° |
| 2026-04-25 16:11 | 6.17131 | -75.42616 | 6990 ft | 10 kts | 356° |
| 2026-04-25 16:11 | 6.17221 | -75.42620 | 6991 ft | 14 kts | 360° |
| 2026-04-25 16:12 | 6.17328 | -75.42619 | 6992 ft | 15 kts | 1° |
| 2026-04-25 16:12 | 6.17430 | -75.42581 | 6993 ft | 16 kts | 36° |
| 2026-04-25 16:12 | 6.17522 | -75.42519 | 6994 ft | 15 kts | 34° |
| 2026-04-25 16:12 | 6.17585 | -75.42490 | 6994 ft | 14 kts | 5° |
| 2026-04-25 16:13 | 6.17718 | -75.42490 | 6995 ft | 13 kts | 359° |
| 2026-04-25 16:13 | 6.17808 | -75.42491 | 6995 ft | 12 kts | 360° |
| 2026-04-25 16:13 | 6.17896 | -75.42491 | 6995 ft | 12 kts | 360° |
| 2026-04-25 16:13 | 6.17980 | -75.42493 | 6995 ft | 11 kts | 360° |
| 2026-04-25 16:14 | 6.18019 | -75.42443 | 6995 ft | 9 kts | 89° |
| 2026-04-25 16:14 | 6.18019 | -75.42424 | 6995 ft | 0 kts | 89° |
| 2026-04-25 16:16 | 6.18019 | -75.42423 | 6995 ft | 1 kts | 89° |
| 2026-04-25 16:16 | 6.18020 | -75.42371 | 6994 ft | 11 kts | 89° |
| 2026-04-25 16:16 | 6.18002 | -75.42321 | 6994 ft | 4 kts | 174° |
| 2026-04-25 16:16 | 6.17996 | -75.42321 | 6994 ft | 0 kts | 178° |
| 2026-04-25 16:17 | 6.17995 | -75.42321 | 6994 ft | 0 kts | 178° |
| 2026-04-25 16:17 | 6.17804 | -75.42316 | 6995 ft | 56 kts | 179° |
| 2026-04-25 16:17 | 6.17219 | -75.42314 | 6989 ft | 110 kts | 180° |
| 2026-04-25 16:18 | 6.16291 | -75.42306 | 6969 ft | 157 kts | 180° |
| 2026-04-25 16:18 | 6.15500 | -75.42305 | 6959 ft | 183 kts | 179° |
| 2026-04-25 16:18 | 6.13713 | -75.42300 | 7489 ft | 187 kts | 179° |
| 2026-04-25 16:18 | 6.12358 | -75.42273 | 7704 ft | 207 kts | 178° |
| 2026-04-25 16:19 | 6.10903 | -75.42178 | 8183 ft | 211 kts | 173° |
| 2026-04-25 16:19 | 6.09450 | -75.41894 | 8634 ft | 217 kts | 165° |
| 2026-04-25 16:19 | 6.07970 | -75.41389 | 8877 ft | 229 kts | 156° |
| 2026-04-25 16:20 | 6.05369 | -75.39332 | 9644 ft | 244 kts | 126° |
| 2026-04-25 16:20 | 6.04490 | -75.37871 | 10143 ft | 246 kts | 116° |
| 2026-04-25 16:20 | 6.03231 | -75.34549 | 10800 ft | 265 kts | 111° |
| 2026-04-25 16:21 | 6.02527 | -75.32787 | 11089 ft | 279 kts | 115° |
| 2026-04-25 16:21 | 6.01643 | -75.30991 | 11202 ft | 298 kts | 120° |
| 2026-04-25 16:21 | 6.00584 | -75.29195 | 11386 ft | 298 kts | 123° |
| 2026-04-25 16:21 | 5.99338 | -75.27527 | 11551 ft | 294 kts | 132° |
| 2026-04-25 16:22 | 5.97896 | -75.26066 | 11631 ft | 300 kts | 139° |
| 2026-04-25 16:22 | 5.96199 | -75.24777 | 12013 ft | 308 kts | 148° |
| 2026-04-25 16:22 | 5.94348 | -75.23741 | 12703 ft | 302 kts | 156° |
| 2026-04-25 16:22 | 5.92459 | -75.22894 | 13379 ft | 297 kts | 159° |
| 2026-04-25 16:23 | 5.90534 | -75.22142 | 13754 ft | 303 kts | 161° |
| 2026-04-25 16:23 | 5.88490 | -75.21404 | 14136 ft | 309 kts | 161° |
| 2026-04-25 16:23 | 5.86489 | -75.20667 | 14798 ft | 304 kts | 161° |
| 2026-04-25 16:23 | 5.84525 | -75.19937 | 15402 ft | 300 kts | 160° |
| 2026-04-25 16:24 | 5.82568 | -75.19154 | 15716 ft | 309 kts | 158° |
| 2026-04-25 16:24 | 5.80561 | -75.18294 | 16006 ft | 317 kts | 156° |
| 2026-04-25 16:24 | 5.78524 | -75.17354 | 16418 ft | 321 kts | 155° |
| 2026-04-25 16:24 | 5.76529 | -75.16393 | 16936 ft | 319 kts | 154° |
| 2026-04-25 16:25 | 5.74546 | -75.15408 | 17438 ft | 319 kts | 154° |
| 2026-04-25 16:25 | 5.73209 | -75.14748 | 17701 ft | 320 kts | 154° |
| 2026-04-25 16:25 | 5.70528 | -75.13342 | 17925 ft | 336 kts | 150° |
| 2026-04-25 16:25 | 5.68432 | -75.12144 | 18055 ft | 348 kts | 153° |
| 2026-04-25 16:26 | 5.66231 | -75.11063 | 18204 ft | 360 kts | 155° |
| 2026-04-25 16:26 | 5.63886 | -75.10059 | 18397 ft | 369 kts | 158° |
| 2026-04-25 16:26 | 5.61481 | -75.09100 | 18595 ft | 379 kts | 159° |
| 2026-04-25 16:26 | 5.58989 | -75.08102 | 18768 ft | 390 kts | 158° |
| 2026-04-25 16:27 | 5.56402 | -75.07050 | 18948 ft | 400 kts | 158° |
| 2026-04-25 16:27 | 5.53815 | -75.05987 | 19089 ft | 410 kts | 158° |
| 2026-04-25 16:27 | 5.51129 | -75.04877 | 19254 ft | 418 kts | 157° |
| 2026-04-25 16:27 | 5.48428 | -75.03758 | 19673 ft | 420 kts | 157° |
| 2026-04-25 16:28 | 5.45707 | -75.02628 | 20038 ft | 423 kts | 157° |
| 2026-04-25 16:28 | 5.42970 | -75.01489 | 20431 ft | 425 kts | 157° |
| 2026-04-25 16:28 | 5.40228 | -75.00348 | 20798 ft | 427 kts | 157° |
| 2026-04-25 16:28 | 5.37478 | -74.99204 | 21111 ft | 431 kts | 157° |
| 2026-04-25 16:29 | 5.34703 | -74.98051 | 21369 ft | 436 kts | 157° |
| 2026-04-25 16:29 | 5.31868 | -74.96871 | 21729 ft | 437 kts | 157° |
| 2026-04-25 16:29 | 5.29089 | -74.95715 | 22133 ft | 438 kts | 156° |
| 2026-04-25 16:29 | 5.26235 | -74.94504 | 22452 ft | 440 kts | 154° |
| 2026-04-25 16:30 | 5.23531 | -74.93077 | 22728 ft | 443 kts | 147° |
| 2026-04-25 16:30 | 5.21056 | -74.91251 | 23044 ft | 444 kts | 137° |
| 2026-04-25 16:30 | 5.18883 | -74.89015 | 23380 ft | 444 kts | 128° |
| 2026-04-25 16:30 | 5.17071 | -74.86544 | 23762 ft | 443 kts | 122° |
| 2026-04-25 16:31 | 5.15393 | -74.83929 | 24118 ft | 444 kts | 120° |
| 2026-04-25 16:31 | 5.13804 | -74.81298 | 24471 ft | 445 kts | 119° |
| 2026-04-25 16:31 | 5.12224 | -74.78616 | 24798 ft | 447 kts | 119° |
| 2026-04-25 16:31 | 5.10633 | -74.75899 | 25099 ft | 449 kts | 119° |
| 2026-04-25 16:32 | 5.09056 | -74.73211 | 25445 ft | 450 kts | 119° |
| 2026-04-25 16:32 | 5.07462 | -74.70501 | 25784 ft | 451 kts | 118° |
| 2026-04-25 16:32 | 5.05863 | -74.67798 | 26096 ft | 452 kts | 119° |
| 2026-04-25 16:32 | 5.04270 | -74.65112 | 26478 ft | 451 kts | 120° |
| 2026-04-25 16:33 | 5.02670 | -74.62427 | 26828 ft | 451 kts | 119° |
| 2026-04-25 16:33 | 5.01048 | -74.59713 | 27049 ft | 455 kts | 119° |
| 2026-04-25 16:33 | 4.99409 | -74.56971 | 27288 ft | 457 kts | 120° |
| 2026-04-25 16:33 | 4.97771 | -74.54234 | 27535 ft | 460 kts | 120° |
| 2026-04-25 16:34 | 4.96129 | -74.51494 | 27799 ft | 461 kts | 120° |
| 2026-04-25 16:34 | 4.94466 | -74.48719 | 28099 ft | 462 kts | 120° |
| 2026-04-25 16:34 | 4.92825 | -74.45982 | 28435 ft | 461 kts | 120° |
| 2026-04-25 16:34 | 4.91178 | -74.43236 | 28800 ft | 460 kts | 120° |
| 2026-04-25 16:35 | 4.89494 | -74.40494 | 29012 ft | 463 kts | 122° |
| 2026-04-25 16:35 | 4.85377 | -74.35443 | 29216 ft | 474 kts | 136° |
| 2026-04-25 16:35 | 4.82755 | -74.33393 | 29345 ft | 479 kts | 146° |
| 2026-04-25 16:36 | 4.79829 | -74.31757 | 29473 ft | 484 kts | 154° |
| 2026-04-25 16:36 | 4.73490 | -74.29932 | 29980 ft | 471 kts | 171° |
| 2026-04-25 16:36 | 4.70222 | -74.29602 | 30236 ft | 469 kts | 174° |
| 2026-04-25 16:37 | 4.66951 | -74.29408 | 30546 ft | 465 kts | 176° |
| 2026-04-25 16:37 | 4.63763 | -74.29241 | 30926 ft | 461 kts | 175° |
| 2026-04-25 16:37 | 4.60550 | -74.29044 | 31320 ft | 459 kts | 175° |
| 2026-04-25 16:37 | 4.57372 | -74.28803 | 31705 ft | 455 kts | 174° |
| 2026-04-25 16:38 | 4.54218 | -74.28525 | 32105 ft | 452 kts | 173° |
| 2026-04-25 16:38 | 4.51090 | -74.28219 | 32552 ft | 447 kts | 173° |
| 2026-04-25 16:38 | 4.48020 | -74.27902 | 32964 ft | 442 kts | 172° |
| 2026-04-25 16:38 | 4.44952 | -74.27567 | 33410 ft | 438 kts | 172° |
| 2026-04-25 16:39 | 4.41969 | -74.27228 | 33931 ft | 431 kts | 171° |
| 2026-04-25 16:39 | 4.39010 | -74.26884 | 34413 ft | 424 kts | 171° |
| 2026-04-25 16:39 | 4.36087 | -74.26541 | 34457 ft | 427 kts | 171° |
| 2026-04-25 16:40 | 4.30105 | -74.25829 | 34505 ft | 431 kts | 171° |
| 2026-04-25 16:40 | 4.24140 | -74.25118 | 34534 ft | 435 kts | 171° |
| 2026-04-25 16:41 | 4.18052 | -74.24391 | 34557 ft | 440 kts | 171° |
| 2026-04-25 16:41 | 4.08822 | -74.23289 | 34582 ft | 448 kts | 171° |
| 2026-04-25 16:42 | 4.02615 | -74.22549 | 34599 ft | 453 kts | 171° |
| 2026-04-25 16:42 | 3.96304 | -74.21797 | 34589 ft | 459 kts | 171° |
| 2026-04-25 16:43 | 3.89926 | -74.21042 | 34538 ft | 463 kts | 171° |
| 2026-04-25 16:43 | 3.83488 | -74.20294 | 34505 ft | 461 kts | 171° |
| 2026-04-25 16:44 | 3.77136 | -74.19558 | 34480 ft | 461 kts | 171° |
| 2026-04-25 16:44 | 3.70705 | -74.18811 | 34444 ft | 461 kts | 171° |
| 2026-04-25 16:45 | 3.64323 | -74.18070 | 34427 ft | 462 kts | 171° |
| 2026-04-25 16:45 | 3.57895 | -74.17323 | 34394 ft | 462 kts | 171° |
| 2026-04-25 16:46 | 3.51521 | -74.16582 | 34360 ft | 462 kts | 171° |
| 2026-04-25 16:46 | 3.46191 | -74.15964 | 34315 ft | 460 kts | 171° |
| 2026-04-25 16:47 | 3.38758 | -74.15098 | 34279 ft | 462 kts | 171° |
| 2026-04-25 16:47 | 3.32350 | -74.14352 | 34241 ft | 462 kts | 171° |
| 2026-04-25 16:48 | 3.25931 | -74.13605 | 34210 ft | 462 kts | 171° |
| 2026-04-25 16:48 | 3.19549 | -74.12862 | 34186 ft | 462 kts | 171° |
| 2026-04-25 16:49 | 3.13150 | -74.12119 | 34210 ft | 461 kts | 171° |
| 2026-04-25 16:49 | 3.06762 | -74.11375 | 34211 ft | 460 kts | 171° |
| 2026-04-25 16:50 | 3.00406 | -74.10638 | 34218 ft | 461 kts | 171° |
| 2026-04-25 16:50 | 2.94032 | -74.09898 | 34229 ft | 461 kts | 170° |
| 2026-04-25 16:51 | 2.87643 | -74.09155 | 34223 ft | 461 kts | 170° |
| 2026-04-25 16:51 | 2.82309 | -74.08536 | 34218 ft | 461 kts | 170° |
| 2026-04-25 16:52 | 2.74859 | -74.07671 | 34216 ft | 460 kts | 170° |
| 2026-04-25 16:52 | 2.68471 | -74.06927 | 34163 ft | 462 kts | 170° |
| 2026-04-25 16:53 | 2.58855 | -74.05809 | 34072 ft | 461 kts | 170° |
| 2026-04-25 16:54 | 2.52453 | -74.05067 | 34018 ft | 463 kts | 170° |
| 2026-04-25 16:54 | 2.46050 | -74.04324 | 33985 ft | 462 kts | 170° |
| 2026-04-25 16:55 | 2.39641 | -74.03579 | 33982 ft | 463 kts | 170° |
| 2026-04-25 16:55 | 2.33236 | -74.02835 | 33973 ft | 463 kts | 170° |
| 2026-04-25 16:56 | 2.26803 | -74.02087 | 33971 ft | 463 kts | 170° |
| 2026-04-25 16:56 | 2.20384 | -74.01341 | 33972 ft | 463 kts | 170° |
| 2026-04-25 16:57 | 2.13937 | -74.00592 | 33968 ft | 465 kts | 170° |
| 2026-04-25 16:57 | 2.07537 | -73.99851 | 33967 ft | 463 kts | 170° |
| 2026-04-25 16:58 | 2.01077 | -73.99103 | 33963 ft | 464 kts | 170° |
| 2026-04-25 16:58 | 1.94662 | -73.98360 | 33963 ft | 464 kts | 170° |
| 2026-04-25 16:59 | 1.88210 | -73.97613 | 33962 ft | 465 kts | 170° |
| 2026-04-25 16:59 | 1.81769 | -73.96866 | 33961 ft | 465 kts | 170° |
| 2026-04-25 17:00 | 1.75333 | -73.96118 | 33959 ft | 465 kts | 170° |
| 2026-04-25 17:00 | 1.68870 | -73.95369 | 33955 ft | 465 kts | 170° |
| 2026-04-25 17:01 | 1.62453 | -73.94623 | 33954 ft | 465 kts | 170° |
| 2026-04-25 17:01 | 1.55993 | -73.93871 | 33954 ft | 467 kts | 169° |
| 2026-04-25 17:02 | 1.49505 | -73.93117 | 33954 ft | 466 kts | 169° |
| 2026-04-25 17:02 | 1.43084 | -73.92371 | 33952 ft | 465 kts | 169° |
| 2026-04-25 17:03 | 1.36649 | -73.91626 | 33951 ft | 465 kts | 170° |
| 2026-04-25 17:03 | 1.30193 | -73.90877 | 33950 ft | 465 kts | 169° |
| 2026-04-25 17:04 | 1.23747 | -73.90130 | 33948 ft | 466 kts | 169° |
| 2026-04-25 17:04 | 1.17276 | -73.89380 | 33946 ft | 466 kts | 170° |
| 2026-04-25 17:05 | 1.10800 | -73.88629 | 33943 ft | 467 kts | 169° |
| 2026-04-25 17:05 | 1.01120 | -73.87508 | 33940 ft | 466 kts | 169° |
| 2026-04-25 17:06 | 0.94658 | -73.86758 | 33937 ft | 466 kts | 169° |
| 2026-04-25 17:06 | 0.88199 | -73.86010 | 33935 ft | 465 kts | 169° |
| 2026-04-25 17:07 | 0.81749 | -73.85262 | 33933 ft | 466 kts | 170° |
| 2026-04-25 17:07 | 0.75275 | -73.84510 | 33933 ft | 467 kts | 170° |
| 2026-04-25 17:08 | 0.68828 | -73.83765 | 33932 ft | 466 kts | 170° |
| 2026-04-25 17:08 | 0.62375 | -73.83017 | 33928 ft | 465 kts | 169° |
| 2026-04-25 17:09 | 0.55925 | -73.82269 | 33929 ft | 465 kts | 170° |
| 2026-04-25 17:09 | 0.49466 | -73.81519 | 33927 ft | 465 kts | 170° |
| 2026-04-25 17:10 | 0.43015 | -73.80772 | 33927 ft | 465 kts | 170° |
| 2026-04-25 17:10 | 0.36565 | -73.80025 | 33921 ft | 466 kts | 170° |
| 2026-04-25 17:11 | 0.30147 | -73.79282 | 33922 ft | 465 kts | 170° |
| 2026-04-25 17:11 | 0.23661 | -73.78529 | 33919 ft | 464 kts | 170° |
| 2026-04-25 17:12 | 0.17246 | -73.77787 | 33916 ft | 464 kts | 170° |
| 2026-04-25 17:12 | 0.10794 | -73.77040 | 33917 ft | 465 kts | 170° |
| 2026-04-25 17:13 | 0.05453 | -73.76421 | 33915 ft | 464 kts | 170° |
| 2026-04-25 17:13 | -0.02078 | -73.75546 | 33914 ft | 466 kts | 170° |
| 2026-04-25 17:14 | -0.08532 | -73.74799 | 33913 ft | 465 kts | 170° |
| 2026-04-25 17:14 | -0.14947 | -73.74056 | 33912 ft | 464 kts | 169° |
| 2026-04-25 17:15 | -0.21405 | -73.73307 | 33909 ft | 465 kts | 169° |
| 2026-04-25 17:15 | -0.27863 | -73.72559 | 33907 ft | 465 kts | 170° |
| 2026-04-25 17:16 | -0.34325 | -73.71809 | 33906 ft | 464 kts | 169° |
| 2026-04-25 17:16 | -0.40728 | -73.71068 | 33905 ft | 465 kts | 170° |
| 2026-04-25 17:17 | -0.47204 | -73.70319 | 33904 ft | 465 kts | 169° |
| 2026-04-25 17:17 | -0.53628 | -73.69574 | 33905 ft | 465 kts | 170° |
| 2026-04-25 17:18 | -0.60096 | -73.68823 | 33901 ft | 465 kts | 170° |
| 2026-04-25 17:18 | -0.66525 | -73.68079 | 33899 ft | 465 kts | 169° |
| 2026-04-25 17:19 | -0.72946 | -73.67336 | 33900 ft | 464 kts | 169° |
| 2026-04-25 17:19 | -0.79382 | -73.66590 | 33901 ft | 463 kts | 169° |
| 2026-04-25 17:20 | -0.85793 | -73.65847 | 33898 ft | 464 kts | 169° |
| 2026-04-25 17:20 | -0.92243 | -73.65099 | 33901 ft | 465 kts | 169° |
| 2026-04-25 17:21 | -0.98677 | -73.64352 | 33900 ft | 464 kts | 169° |
| 2026-04-25 17:21 | -1.05126 | -73.63604 | 33901 ft | 464 kts | 169° |
| 2026-04-25 17:22 | -1.10482 | -73.62983 | 33900 ft | 464 kts | 169° |
| 2026-04-25 17:22 | -1.18006 | -73.62110 | 33902 ft | 465 kts | 169° |
| 2026-04-25 17:23 | -1.24439 | -73.61365 | 33907 ft | 465 kts | 169° |
| 2026-04-25 17:23 | -1.30900 | -73.60617 | 33910 ft | 465 kts | 170° |
| 2026-04-25 17:24 | -1.37367 | -73.59867 | 33911 ft | 465 kts | 169° |
| 2026-04-25 17:24 | -1.43798 | -73.59121 | 33910 ft | 464 kts | 169° |
| 2026-04-25 17:25 | -1.50208 | -73.58377 | 33916 ft | 465 kts | 170° |
| 2026-04-25 17:25 | -1.56652 | -73.57630 | 33918 ft | 464 kts | 170° |
| 2026-04-25 17:26 | -1.63098 | -73.56884 | 33917 ft | 465 kts | 170° |
| 2026-04-25 17:26 | -1.69545 | -73.56136 | 33916 ft | 465 kts | 170° |
| 2026-04-25 17:27 | -1.75987 | -73.55389 | 33915 ft | 465 kts | 170° |
| 2026-04-25 17:27 | -1.81365 | -73.54767 | 33914 ft | 466 kts | 170° |
| 2026-04-25 17:28 | -1.88890 | -73.53895 | 33915 ft | 464 kts | 170° |
| 2026-04-25 17:28 | -1.95346 | -73.53146 | 33915 ft | 465 kts | 170° |
| 2026-04-25 17:29 | -2.01785 | -73.52400 | 33915 ft | 465 kts | 170° |
| 2026-04-25 17:29 | -2.08261 | -73.51649 | 33916 ft | 465 kts | 170° |
| 2026-04-25 17:30 | -2.14727 | -73.50897 | 33915 ft | 465 kts | 170° |
| 2026-04-25 17:30 | -2.21176 | -73.50148 | 33914 ft | 466 kts | 170° |
| 2026-04-25 17:31 | -2.27608 | -73.49403 | 33911 ft | 465 kts | 170° |
| 2026-04-25 17:31 | -2.34058 | -73.48656 | 33907 ft | 464 kts | 170° |
| 2026-04-25 17:32 | -2.40480 | -73.47910 | 33909 ft | 465 kts | 170° |
| 2026-04-25 17:32 | -2.46910 | -73.47163 | 33906 ft | 465 kts | 170° |
| 2026-04-25 17:33 | -2.53386 | -73.46411 | 33901 ft | 466 kts | 170° |
| 2026-04-25 17:33 | -2.59865 | -73.45660 | 33894 ft | 466 kts | 170° |
| 2026-04-25 17:34 | -2.66312 | -73.44913 | 33891 ft | 467 kts | 170° |
| 2026-04-25 17:34 | -2.72803 | -73.44160 | 33889 ft | 467 kts | 170° |
| 2026-04-25 17:35 | -2.79236 | -73.43413 | 33889 ft | 466 kts | 170° |
| 2026-04-25 17:35 | -2.85676 | -73.42664 | 33888 ft | 466 kts | 170° |
| 2026-04-25 17:36 | -2.92130 | -73.41914 | 33888 ft | 466 kts | 170° |
| 2026-04-25 17:36 | -2.98627 | -73.41159 | 33888 ft | 467 kts | 170° |
| 2026-04-25 17:37 | -3.05076 | -73.40410 | 33887 ft | 467 kts | 170° |
| 2026-04-25 17:37 | -3.11552 | -73.39657 | 33886 ft | 467 kts | 170° |
| 2026-04-25 17:38 | -3.16969 | -73.39028 | 33886 ft | 467 kts | 170° |
| 2026-04-25 17:38 | -3.24474 | -73.38157 | 33886 ft | 465 kts | 170° |
| 2026-04-25 17:39 | -3.30934 | -73.37406 | 33888 ft | 466 kts | 170° |
| 2026-04-25 17:39 | -3.37362 | -73.36659 | 33886 ft | 466 kts | 170° |
| 2026-04-25 17:40 | -3.43832 | -73.35905 | 33886 ft | 466 kts | 170° |
| 2026-04-25 17:40 | -3.50295 | -73.35155 | 33886 ft | 466 kts | 170° |
| 2026-04-25 17:41 | -3.56741 | -73.34406 | 33895 ft | 467 kts | 170° |
| 2026-04-25 17:41 | -3.63231 | -73.33652 | 33907 ft | 466 kts | 170° |
| 2026-04-25 17:42 | -3.69660 | -73.32904 | 33908 ft | 465 kts | 169° |
| 2026-04-25 17:42 | -3.76120 | -73.32152 | 33909 ft | 465 kts | 169° |
| 2026-04-25 17:43 | -3.82557 | -73.31321 | 33984 ft | 463 kts | 167° |
| 2026-04-25 17:43 | -3.85747 | -73.30749 | 34124 ft | 465 kts | 165° |
| 2026-04-25 17:43 | -3.88925 | -73.30113 | 34294 ft | 466 kts | 165° |
| 2026-04-25 17:44 | -3.92076 | -73.29459 | 34535 ft | 465 kts | 164° |
| 2026-04-25 17:44 | -3.95268 | -73.28793 | 34788 ft | 465 kts | 165° |
| 2026-04-25 17:44 | -3.98431 | -73.28140 | 34897 ft | 466 kts | 165° |
| 2026-04-25 17:44 | -4.01636 | -73.27486 | 34894 ft | 469 kts | 165° |
| 2026-04-25 17:45 | -4.06986 | -73.26415 | 34892 ft | 473 kts | 165° |
| 2026-04-25 17:45 | -4.14594 | -73.24918 | 34884 ft | 476 kts | 165° |
| 2026-04-25 17:46 | -4.21098 | -73.23649 | 34884 ft | 478 kts | 165° |
| 2026-04-25 17:46 | -4.27652 | -73.22375 | 34883 ft | 477 kts | 165° |
| 2026-04-25 17:47 | -4.34205 | -73.21103 | 34884 ft | 477 kts | 165° |
| 2026-04-25 17:47 | -4.40694 | -73.19841 | 34884 ft | 476 kts | 165° |
| 2026-04-25 17:48 | -4.50491 | -73.17933 | 34884 ft | 477 kts | 165° |
| 2026-04-25 17:49 | -4.57019 | -73.16661 | 34883 ft | 477 kts | 165° |
| 2026-04-25 17:49 | -4.63554 | -73.15389 | 34885 ft | 477 kts | 165° |
| 2026-04-25 17:50 | -4.70083 | -73.14117 | 34883 ft | 477 kts | 165° |
| 2026-04-25 17:50 | -4.76600 | -73.12848 | 34882 ft | 476 kts | 165° |
| 2026-04-25 17:51 | -4.83099 | -73.11582 | 34884 ft | 476 kts | 165° |
| 2026-04-25 17:51 | -4.89613 | -73.10312 | 34883 ft | 477 kts | 165° |
| 2026-04-25 17:52 | -4.96145 | -73.09039 | 34888 ft | 476 kts | 165° |
| 2026-04-25 17:52 | -5.02658 | -73.07771 | 34897 ft | 475 kts | 165° |
| 2026-04-25 17:53 | -5.09147 | -73.06506 | 34902 ft | 475 kts | 165° |
| 2026-04-25 17:53 | -5.15692 | -73.05229 | 34903 ft | 476 kts | 165° |
| 2026-04-25 17:54 | -5.22200 | -73.03959 | 34902 ft | 476 kts | 165° |
| 2026-04-25 17:54 | -5.28707 | -73.02690 | 34902 ft | 476 kts | 165° |
| 2026-04-25 17:55 | -5.35247 | -73.01414 | 34902 ft | 476 kts | 165° |
| 2026-04-25 17:55 | -5.41733 | -73.00149 | 34902 ft | 475 kts | 165° |
| 2026-04-25 17:56 | -5.48247 | -72.98875 | 34902 ft | 475 kts | 165° |
| 2026-04-25 17:56 | -5.54768 | -72.97599 | 34904 ft | 476 kts | 165° |
| 2026-04-25 17:57 | -5.61266 | -72.96330 | 34904 ft | 475 kts | 166° |
| 2026-04-25 17:57 | -5.67807 | -72.95050 | 34905 ft | 476 kts | 166° |
| 2026-04-25 17:58 | -5.74314 | -72.93767 | 34904 ft | 475 kts | 165° |
| 2026-04-25 17:58 | -5.80806 | -72.92485 | 34904 ft | 475 kts | 165° |
| 2026-04-25 17:59 | -5.87308 | -72.91200 | 34906 ft | 475 kts | 165° |
| 2026-04-25 17:59 | -5.93785 | -72.89921 | 34911 ft | 475 kts | 166° |
| 2026-04-25 18:00 | -6.00284 | -72.88638 | 34915 ft | 475 kts | 166° |
| 2026-04-25 18:00 | -6.06801 | -72.87351 | 34912 ft | 474 kts | 166° |
| 2026-04-25 18:01 | -6.13277 | -72.86072 | 34915 ft | 475 kts | 165° |
| 2026-04-25 18:01 | -6.19770 | -72.84788 | 34916 ft | 474 kts | 166° |
| 2026-04-25 18:02 | -6.26300 | -72.83496 | 34918 ft | 475 kts | 166° |
| 2026-04-25 18:02 | -6.32760 | -72.82219 | 34915 ft | 474 kts | 166° |
| 2026-04-25 18:03 | -6.39251 | -72.80935 | 34914 ft | 474 kts | 166° |
| 2026-04-25 18:03 | -6.45749 | -72.79649 | 34911 ft | 474 kts | 166° |
| 2026-04-25 18:04 | -6.52213 | -72.78371 | 34909 ft | 474 kts | 166° |
| 2026-04-25 18:04 | -6.58712 | -72.77084 | 34914 ft | 474 kts | 166° |
| 2026-04-25 18:05 | -6.65211 | -72.75796 | 34915 ft | 474 kts | 166° |
| 2026-04-25 18:05 | -6.71651 | -72.74520 | 34918 ft | 473 kts | 166° |
| 2026-04-25 18:06 | -6.78165 | -72.73229 | 34920 ft | 474 kts | 166° |
| 2026-04-25 18:06 | -6.84647 | -72.71944 | 34923 ft | 473 kts | 166° |
| 2026-04-25 18:07 | -6.91107 | -72.70665 | 34923 ft | 474 kts | 166° |
| 2026-04-25 18:07 | -6.97568 | -72.69384 | 34925 ft | 474 kts | 166° |
| 2026-04-25 18:08 | -7.04098 | -72.68089 | 34925 ft | 474 kts | 166° |
| 2026-04-25 18:08 | -7.10574 | -72.66803 | 34925 ft | 475 kts | 166° |
| 2026-04-25 18:09 | -7.17078 | -72.65513 | 34927 ft | 475 kts | 166° |
| 2026-04-25 18:09 | -7.23589 | -72.64220 | 34924 ft | 475 kts | 166° |
| 2026-04-25 18:10 | -7.30073 | -72.62933 | 34925 ft | 474 kts | 166° |
| 2026-04-25 18:10 | -7.36534 | -72.61650 | 34930 ft | 474 kts | 166° |
| 2026-04-25 18:11 | -7.43048 | -72.60356 | 34927 ft | 473 kts | 166° |
| 2026-04-25 18:11 | -7.49505 | -72.59074 | 34930 ft | 474 kts | 166° |
| 2026-04-25 18:12 | -7.55988 | -72.57786 | 34924 ft | 473 kts | 166° |
| 2026-04-25 18:12 | -7.62477 | -72.56496 | 34920 ft | 474 kts | 166° |
| 2026-04-25 18:13 | -7.68953 | -72.55206 | 34916 ft | 474 kts | 166° |
| 2026-04-25 18:13 | -7.75413 | -72.53915 | 34915 ft | 473 kts | 166° |
| 2026-04-25 18:14 | -7.85132 | -72.51930 | 34912 ft | 472 kts | 166° |
| 2026-04-25 18:14 | -7.91569 | -72.50611 | 34912 ft | 472 kts | 166° |
| 2026-04-25 18:15 | -7.98023 | -72.49291 | 34911 ft | 472 kts | 166° |
| 2026-04-25 18:15 | -8.04488 | -72.47968 | 34913 ft | 472 kts | 166° |
| 2026-04-25 18:16 | -8.10942 | -72.46648 | 34914 ft | 473 kts | 165° |
| 2026-04-25 18:17 | -8.20631 | -72.44668 | 34915 ft | 472 kts | 165° |
| 2026-04-25 18:17 | -8.27060 | -72.43354 | 34915 ft | 472 kts | 166° |
| 2026-04-25 18:18 | -8.33497 | -72.42037 | 34916 ft | 471 kts | 166° |
| 2026-04-25 18:18 | -8.39954 | -72.40716 | 34919 ft | 472 kts | 166° |
| 2026-04-25 18:19 | -8.46422 | -72.39392 | 34923 ft | 472 kts | 166° |
| 2026-04-25 18:19 | -8.52845 | -72.38077 | 34927 ft | 471 kts | 166° |
| 2026-04-25 18:20 | -8.59334 | -72.36749 | 34931 ft | 473 kts | 166° |
| 2026-04-25 18:20 | -8.65785 | -72.35428 | 34930 ft | 472 kts | 166° |
| 2026-04-25 18:21 | -8.72218 | -72.34110 | 34931 ft | 472 kts | 165° |
| 2026-04-25 18:21 | -8.78701 | -72.32780 | 34932 ft | 473 kts | 165° |
| 2026-04-25 18:22 | -8.85121 | -72.31465 | 34937 ft | 472 kts | 166° |
| 2026-04-25 18:22 | -8.91586 | -72.30143 | 34939 ft | 471 kts | 165° |
| 2026-04-25 18:23 | -8.98013 | -72.28828 | 34941 ft | 471 kts | 165° |
| 2026-04-25 18:23 | -9.04507 | -72.27563 | 34943 ft | 473 kts | 166° |
| 2026-04-25 18:24 | -9.10960 | -72.26357 | 34942 ft | 473 kts | 166° |
| 2026-04-25 18:24 | -9.17465 | -72.25145 | 34939 ft | 471 kts | 166° |
| 2026-04-25 18:25 | -9.23924 | -72.23931 | 34936 ft | 472 kts | 166° |
| 2026-04-25 18:25 | -9.30393 | -72.22710 | 34938 ft | 472 kts | 166° |
| 2026-04-25 18:26 | -9.36835 | -72.21491 | 34940 ft | 473 kts | 166° |
| 2026-04-25 18:26 | -9.43341 | -72.20261 | 34941 ft | 471 kts | 166° |
| 2026-04-25 18:27 | -9.49773 | -72.19041 | 34937 ft | 472 kts | 166° |
| 2026-04-25 18:27 | -9.56264 | -72.17797 | 34931 ft | 472 kts | 166° |
| 2026-04-25 18:28 | -9.62676 | -72.16531 | 34929 ft | 471 kts | 166° |
| 2026-04-25 18:28 | -9.69162 | -72.15240 | 34934 ft | 473 kts | 166° |
| 2026-04-25 18:29 | -9.78850 | -72.13313 | 34934 ft | 472 kts | 166° |
| 2026-04-25 18:30 | -9.91773 | -72.10747 | 34935 ft | 472 kts | 166° |
| 2026-04-25 18:30 | -9.98265 | -72.09460 | 34933 ft | 472 kts | 166° |
| 2026-04-25 18:31 | -10.04717 | -72.08173 | 34935 ft | 472 kts | 166° |
| 2026-04-25 18:31 | -10.11149 | -72.06870 | 34938 ft | 472 kts | 166° |
| 2026-04-25 18:32 | -10.17605 | -72.05559 | 34942 ft | 473 kts | 166° |
| 2026-04-25 18:32 | -10.24062 | -72.04249 | 34947 ft | 473 kts | 166° |
| 2026-04-25 18:33 | -10.30513 | -72.02940 | 34948 ft | 472 kts | 166° |
| 2026-04-25 18:33 | -10.36986 | -72.01629 | 34952 ft | 470 kts | 166° |
| 2026-04-25 18:34 | -10.43385 | -72.00330 | 34952 ft | 471 kts | 166° |
| 2026-04-25 18:34 | -10.49845 | -71.99019 | 34956 ft | 471 kts | 166° |
| 2026-04-25 18:35 | -10.56286 | -71.97710 | 34962 ft | 471 kts | 166° |
| 2026-04-25 18:35 | -10.62714 | -71.96406 | 34963 ft | 471 kts | 166° |
| 2026-04-25 18:36 | -10.69154 | -71.95097 | 34958 ft | 471 kts | 166° |
| 2026-04-25 18:36 | -10.75585 | -71.93791 | 34955 ft | 471 kts | 166° |
| 2026-04-25 18:37 | -10.82049 | -71.92477 | 34958 ft | 470 kts | 166° |
| 2026-04-25 18:37 | -10.88469 | -71.91170 | 34963 ft | 470 kts | 166° |
| 2026-04-25 18:38 | -10.94894 | -71.89865 | 34966 ft | 470 kts | 166° |
| 2026-04-25 18:38 | -11.01287 | -71.88563 | 34970 ft | 470 kts | 166° |
| 2026-04-25 18:39 | -11.07729 | -71.87252 | 34977 ft | 470 kts | 166° |
| 2026-04-25 18:39 | -11.14162 | -71.85943 | 34980 ft | 470 kts | 166° |
| 2026-04-25 18:40 | -11.20606 | -71.84628 | 34980 ft | 470 kts | 166° |
| 2026-04-25 18:40 | -11.27020 | -71.83318 | 34978 ft | 471 kts | 166° |
| 2026-04-25 18:41 | -11.33445 | -71.82006 | 34976 ft | 470 kts | 167° |
| 2026-04-25 18:41 | -11.39874 | -71.80694 | 34973 ft | 469 kts | 166° |
| 2026-04-25 18:42 | -11.45235 | -71.79600 | 34973 ft | 469 kts | 167° |
| 2026-04-25 18:42 | -11.52719 | -71.78070 | 34972 ft | 469 kts | 167° |
| 2026-04-25 18:43 | -11.59137 | -71.76760 | 34973 ft | 470 kts | 167° |
| 2026-04-25 18:43 | -11.65538 | -71.75452 | 34973 ft | 470 kts | 167° |
| 2026-04-25 18:44 | -11.71974 | -71.74135 | 34973 ft | 470 kts | 167° |
| 2026-04-25 18:44 | -11.78366 | -71.72827 | 34968 ft | 470 kts | 167° |
| 2026-04-25 18:45 | -11.84827 | -71.71506 | 34972 ft | 470 kts | 167° |
| 2026-04-25 18:45 | -11.91200 | -71.70200 | 34978 ft | 469 kts | 167° |
| 2026-04-25 18:46 | -11.97646 | -71.68875 | 34992 ft | 468 kts | 167° |
| 2026-04-25 18:46 | -12.04006 | -71.67570 | 35006 ft | 467 kts | 167° |
| 2026-04-25 18:47 | -12.10424 | -71.66252 | 35050 ft | 470 kts | 167° |
| 2026-04-25 18:47 | -12.16863 | -71.64932 | 35084 ft | 469 kts | 167° |
| 2026-04-25 18:48 | -12.23241 | -71.63623 | 35157 ft | 469 kts | 167° |
| 2026-04-25 18:48 | -12.29669 | -71.62302 | 35203 ft | 468 kts | 167° |
| 2026-04-25 18:49 | -12.36052 | -71.60987 | 35235 ft | 468 kts | 167° |
| 2026-04-25 18:49 | -12.42470 | -71.59668 | 35242 ft | 468 kts | 167° |
| 2026-04-25 18:50 | -12.48880 | -71.58352 | 35244 ft | 468 kts | 167° |
| 2026-04-25 18:50 | -12.55261 | -71.57043 | 35252 ft | 468 kts | 167° |
| 2026-04-25 18:51 | -12.60570 | -71.55954 | 35234 ft | 469 kts | 168° |
| 2026-04-25 18:51 | -12.68087 | -71.54410 | 35238 ft | 469 kts | 167° |
| 2026-04-25 18:52 | -12.74499 | -71.53092 | 35222 ft | 469 kts | 167° |
| 2026-04-25 18:52 | -12.80907 | -71.51775 | 35250 ft | 469 kts | 167° |
| 2026-04-25 18:53 | -12.87316 | -71.50456 | 35295 ft | 470 kts | 167° |
| 2026-04-25 18:53 | -12.93745 | -71.49133 | 35354 ft | 468 kts | 167° |
| 2026-04-25 18:54 | -13.03339 | -71.47157 | 35405 ft | 469 kts | 167° |
| 2026-04-25 18:55 | -13.09735 | -71.45839 | 35447 ft | 469 kts | 167° |
| 2026-04-25 18:55 | -13.16140 | -71.44518 | 35500 ft | 468 kts | 167° |
| 2026-04-25 18:56 | -13.22568 | -71.43190 | 35621 ft | 469 kts | 167° |
| 2026-04-25 18:56 | -13.28945 | -71.41872 | 35607 ft | 468 kts | 167° |
| 2026-04-25 18:57 | -13.35341 | -71.40550 | 35739 ft | 468 kts | 167° |
| 2026-04-25 18:57 | -13.41788 | -71.39218 | 35781 ft | 469 kts | 167° |
| 2026-04-25 18:58 | -13.48162 | -71.37901 | 35816 ft | 468 kts | 167° |
| 2026-04-25 18:58 | -13.57763 | -71.35917 | 35843 ft | 469 kts | 167° |
| 2026-04-25 18:59 | -13.70569 | -71.33273 | 35909 ft | 469 kts | 167° |
| 2026-04-25 19:00 | -13.80171 | -71.31289 | 35937 ft | 468 kts | 167° |
| 2026-04-25 19:01 | -13.89802 | -71.29295 | 35971 ft | 468 kts | 167° |
| 2026-04-25 19:01 | -13.96188 | -71.27972 | 35990 ft | 468 kts | 167° |
| 2026-04-25 19:02 | -14.05782 | -71.25982 | 35996 ft | 469 kts | 167° |
| 2026-04-25 19:03 | -14.14328 | -71.24207 | 36024 ft | 469 kts | 167° |
| 2026-04-25 19:03 | -14.21788 | -71.22656 | 36000 ft | 469 kts | 167° |
| 2026-04-25 19:04 | -14.31427 | -71.20651 | 36002 ft | 469 kts | 167° |
| 2026-04-25 19:05 | -14.44217 | -71.17989 | 36002 ft | 469 kts | 167° |
| 2026-04-25 19:06 | -14.50608 | -71.16659 | 36000 ft | 469 kts | 167° |
| 2026-04-25 19:06 | -14.60246 | -71.14650 | 35997 ft | 469 kts | 167° |
| 2026-04-25 19:07 | -14.69845 | -71.12647 | 35987 ft | 470 kts | 167° |
| 2026-04-25 19:08 | -14.79479 | -71.10634 | 35971 ft | 470 kts | 167° |
| 2026-04-25 19:09 | -14.91235 | -71.08176 | 35958 ft | 469 kts | 167° |
| 2026-04-25 19:10 | -15.01949 | -71.05935 | 35930 ft | 469 kts | 167° |
| 2026-04-25 19:10 | -15.08367 | -71.04591 | 35949 ft | 472 kts | 167° |
| 2026-04-25 19:11 | -15.14826 | -71.03237 | 35962 ft | 472 kts | 167° |
| 2026-04-25 19:11 | -15.21237 | -71.01893 | 35957 ft | 470 kts | 167° |
| 2026-04-25 19:12 | -15.27679 | -71.00541 | 35978 ft | 470 kts | 167° |
| 2026-04-25 19:12 | -15.34083 | -70.99197 | 35973 ft | 470 kts | 167° |
| 2026-04-25 19:13 | -15.40522 | -70.97845 | 35974 ft | 469 kts | 167° |
| 2026-04-25 19:13 | -15.46940 | -70.96494 | 35973 ft | 472 kts | 168° |
| 2026-04-25 19:14 | -15.53422 | -70.95129 | 35973 ft | 475 kts | 168° |
| 2026-04-25 19:14 | -15.59903 | -70.93765 | 35962 ft | 474 kts | 168° |
| 2026-04-25 19:15 | -15.66380 | -70.92401 | 35976 ft | 473 kts | 168° |
| 2026-04-25 19:15 | -15.72837 | -70.91040 | 35994 ft | 470 kts | 168° |
| 2026-04-25 19:16 | -15.79238 | -70.89689 | 36008 ft | 471 kts | 168° |
| 2026-04-25 19:16 | -15.85697 | -70.88326 | 36008 ft | 472 kts | 168° |
| 2026-04-25 19:17 | -15.92135 | -70.86965 | 36014 ft | 473 kts | 168° |
| 2026-04-25 19:17 | -15.98608 | -70.85597 | 36007 ft | 472 kts | 168° |
| 2026-04-25 19:18 | -16.05055 | -70.84235 | 36021 ft | 472 kts | 168° |
| 2026-04-25 19:18 | -16.11491 | -70.82873 | 35996 ft | 472 kts | 168° |
| 2026-04-25 19:19 | -16.17951 | -70.81504 | 35968 ft | 471 kts | 168° |
| 2026-04-25 19:19 | -16.24385 | -70.80138 | 35952 ft | 472 kts | 168° |
| 2026-04-25 19:20 | -16.30847 | -70.78767 | 35923 ft | 473 kts | 168° |
| 2026-04-25 19:20 | -16.37295 | -70.77397 | 35900 ft | 475 kts | 168° |
| 2026-04-25 19:21 | -16.43803 | -70.76018 | 35924 ft | 475 kts | 168° |
| 2026-04-25 19:21 | -16.53515 | -70.73961 | 35917 ft | 476 kts | 168° |
| 2026-04-25 19:22 | -16.60011 | -70.72583 | 35865 ft | 476 kts | 168° |
| 2026-04-25 19:23 | -16.69779 | -70.70506 | 35759 ft | 475 kts | 168° |
| 2026-04-25 19:23 | -16.79488 | -70.68441 | 35699 ft | 475 kts | 168° |
| 2026-04-25 19:24 | -16.85967 | -70.67063 | 35718 ft | 476 kts | 168° |
| 2026-04-25 19:24 | -16.92451 | -70.65683 | 35822 ft | 475 kts | 168° |
| 2026-04-25 19:25 | -16.98948 | -70.64301 | 35852 ft | 476 kts | 168° |
| 2026-04-25 19:25 | -17.05463 | -70.62912 | 35817 ft | 476 kts | 168° |
| 2026-04-25 19:26 | -17.11951 | -70.61528 | 35785 ft | 476 kts | 168° |
| 2026-04-25 19:26 | -17.18444 | -70.60140 | 35692 ft | 476 kts | 168° |
| 2026-04-25 19:27 | -17.23870 | -70.58981 | 35692 ft | 475 kts | 168° |
| 2026-04-25 19:27 | -17.31439 | -70.57362 | 35611 ft | 475 kts | 167° |
| 2026-04-25 19:28 | -17.37933 | -70.55971 | 35518 ft | 476 kts | 168° |
| 2026-04-25 19:28 | -17.44468 | -70.54572 | 35486 ft | 476 kts | 168° |
| 2026-04-25 19:29 | -17.50953 | -70.53181 | 35375 ft | 476 kts | 168° |
| 2026-04-25 19:29 | -17.57481 | -70.51781 | 35313 ft | 476 kts | 168° |
| 2026-04-25 19:30 | -17.63981 | -70.50387 | 35266 ft | 476 kts | 168° |
| 2026-04-25 19:30 | -17.70484 | -70.48990 | 35211 ft | 476 kts | 168° |
| 2026-04-25 19:31 | -17.76958 | -70.47598 | 35117 ft | 477 kts | 168° |
| 2026-04-25 19:31 | -17.83473 | -70.46197 | 35117 ft | 477 kts | 168° |
| 2026-04-25 19:32 | -17.90018 | -70.44788 | 35074 ft | 478 kts | 167° |
| 2026-04-25 19:32 | -17.95422 | -70.43624 | 35055 ft | 476 kts | 168° |
| 2026-04-25 19:33 | -18.03054 | -70.41979 | 35017 ft | 478 kts | 168° |
| 2026-04-25 19:33 | -18.09555 | -70.40577 | 35013 ft | 479 kts | 168° |
| 2026-04-25 19:34 | -18.16111 | -70.39161 | 35008 ft | 479 kts | 167° |
| 2026-04-25 19:34 | -18.22656 | -70.37747 | 35004 ft | 480 kts | 168° |
| 2026-04-25 19:35 | -18.29242 | -70.36323 | 34999 ft | 480 kts | 168° |
| 2026-04-25 19:35 | -18.35780 | -70.34912 | 34984 ft | 481 kts | 168° |
| 2026-04-25 19:36 | -18.42413 | -70.33937 | 34980 ft | 481 kts | 174° |
| 2026-04-25 19:36 | -18.49111 | -70.33383 | 34976 ft | 482 kts | 175° |
| 2026-04-25 19:37 | -18.55814 | -70.32903 | 34980 ft | 482 kts | 175° |
| 2026-04-25 19:37 | -18.62506 | -70.32396 | 34984 ft | 483 kts | 175° |
| 2026-04-25 19:38 | -18.69254 | -70.31852 | 34989 ft | 482 kts | 175° |
| 2026-04-25 19:38 | -18.75939 | -70.31290 | 34989 ft | 483 kts | 175° |
| 2026-04-25 19:39 | -18.82650 | -70.30717 | 34995 ft | 483 kts | 175° |
| 2026-04-25 19:39 | -18.89377 | -70.30137 | 35003 ft | 482 kts | 175° |
| 2026-04-25 19:40 | -18.96056 | -70.29560 | 35035 ft | 481 kts | 175° |
| 2026-04-25 19:40 | -19.02775 | -70.28979 | 35043 ft | 482 kts | 175° |
| 2026-04-25 19:41 | -19.09476 | -70.28400 | 35033 ft | 482 kts | 175° |
| 2026-04-25 19:41 | -19.15019 | -70.27921 | 35031 ft | 482 kts | 175° |
| 2026-04-25 19:42 | -19.22867 | -70.27241 | 35025 ft | 483 kts | 175° |
| 2026-04-25 19:42 | -19.29604 | -70.26657 | 35005 ft | 483 kts | 175° |
| 2026-04-25 19:43 | -19.36299 | -70.26077 | 34988 ft | 483 kts | 176° |
| 2026-04-25 19:43 | -19.43022 | -70.25552 | 34965 ft | 482 kts | 177° |
| 2026-04-25 19:44 | -19.49710 | -70.25133 | 34938 ft | 482 kts | 177° |
| 2026-04-25 19:44 | -19.56443 | -70.24731 | 34936 ft | 482 kts | 177° |
| 2026-04-25 19:45 | -19.63155 | -70.24323 | 34937 ft | 483 kts | 177° |
| 2026-04-25 19:45 | -19.69859 | -70.23905 | 34946 ft | 483 kts | 177° |
| 2026-04-25 19:46 | -19.76569 | -70.23481 | 34951 ft | 482 kts | 177° |
| 2026-04-25 19:46 | -19.83274 | -70.23054 | 34955 ft | 481 kts | 178° |
| 2026-04-25 19:47 | -19.90003 | -70.22623 | 34956 ft | 481 kts | 177° |
| 2026-04-25 19:47 | -19.96681 | -70.22195 | 34958 ft | 481 kts | 178° |
| 2026-04-25 19:48 | -20.03384 | -70.21765 | 34964 ft | 481 kts | 178° |
| 2026-04-25 19:48 | -20.10089 | -70.21335 | 34967 ft | 482 kts | 178° |
| 2026-04-25 19:49 | -20.15697 | -70.20976 | 34968 ft | 482 kts | 178° |
| 2026-04-25 19:49 | -20.23518 | -70.20473 | 34969 ft | 481 kts | 178° |
| 2026-04-25 19:50 | -20.33569 | -70.19827 | 34971 ft | 482 kts | 178° |
| 2026-04-25 19:51 | -20.40318 | -70.19392 | 34971 ft | 482 kts | 178° |
| 2026-04-25 19:51 | -20.47019 | -70.18961 | 34973 ft | 481 kts | 178° |
| 2026-04-25 19:52 | -20.53716 | -70.18531 | 34972 ft | 482 kts | 178° |
| 2026-04-25 19:52 | -20.60450 | -70.18464 | 34969 ft | 481 kts | 185° |
| 2026-04-25 19:53 | -20.67109 | -70.19003 | 34967 ft | 480 kts | 187° |
| 2026-04-25 19:53 | -20.73747 | -70.19704 | 34965 ft | 481 kts | 188° |
| 2026-04-25 19:54 | -20.80438 | -70.20407 | 34960 ft | 481 kts | 188° |
| 2026-04-25 19:54 | -20.87085 | -70.21074 | 34952 ft | 480 kts | 187° |
| 2026-04-25 19:55 | -20.93777 | -70.21719 | 34950 ft | 480 kts | 187° |
| 2026-04-25 19:55 | -21.00470 | -70.22353 | 34943 ft | 480 kts | 187° |
| 2026-04-25 19:56 | -21.07106 | -70.22977 | 34941 ft | 480 kts | 187° |
| 2026-04-25 19:56 | -21.13792 | -70.23604 | 34941 ft | 482 kts | 187° |
| 2026-04-25 19:57 | -21.20519 | -70.24236 | 34940 ft | 481 kts | 188° |
| 2026-04-25 19:57 | -21.27154 | -70.24857 | 34932 ft | 480 kts | 188° |
| 2026-04-25 19:58 | -21.33846 | -70.25487 | 34934 ft | 480 kts | 188° |
| 2026-04-25 19:58 | -21.40516 | -70.26116 | 34940 ft | 480 kts | 188° |
| 2026-04-25 19:59 | -21.47150 | -70.26742 | 34944 ft | 480 kts | 188° |
| 2026-04-25 19:59 | -21.53831 | -70.27372 | 34937 ft | 480 kts | 188° |
| 2026-04-25 20:00 | -21.60516 | -70.28002 | 34930 ft | 480 kts | 188° |
| 2026-04-25 20:00 | -21.67175 | -70.28631 | 34932 ft | 479 kts | 188° |
| 2026-04-25 20:01 | -21.77180 | -70.29578 | 34931 ft | 479 kts | 188° |
| 2026-04-25 20:01 | -21.83809 | -70.30206 | 34922 ft | 478 kts | 189° |
| 2026-04-25 20:02 | -21.90486 | -70.30840 | 34931 ft | 479 kts | 189° |
| 2026-04-25 20:02 | -21.97122 | -70.31457 | 34927 ft | 479 kts | 188° |
| 2026-04-25 20:03 | -22.03776 | -70.32043 | 34924 ft | 478 kts | 188° |
| 2026-04-25 20:03 | -22.10432 | -70.32622 | 34926 ft | 479 kts | 188° |
| 2026-04-25 20:04 | -22.17084 | -70.33203 | 34927 ft | 477 kts | 188° |
| 2026-04-25 20:04 | -22.23687 | -70.33784 | 34925 ft | 477 kts | 189° |
| 2026-04-25 20:05 | -22.30309 | -70.34370 | 34933 ft | 478 kts | 189° |
| 2026-04-25 20:05 | -22.36969 | -70.34961 | 34933 ft | 478 kts | 189° |
| 2026-04-25 20:06 | -22.43638 | -70.35553 | 34945 ft | 478 kts | 189° |
| 2026-04-25 20:06 | -22.50241 | -70.36139 | 34949 ft | 477 kts | 189° |
| 2026-04-25 20:07 | -22.56895 | -70.36731 | 34965 ft | 477 kts | 189° |
| 2026-04-25 20:07 | -22.63507 | -70.37318 | 34978 ft | 476 kts | 189° |
| 2026-04-25 20:08 | -22.70148 | -70.37910 | 34988 ft | 477 kts | 189° |
| 2026-04-25 20:08 | -22.76798 | -70.38504 | 34998 ft | 477 kts | 189° |
| 2026-04-25 20:09 | -22.83433 | -70.39096 | 34997 ft | 476 kts | 189° |
| 2026-04-25 20:09 | -22.90033 | -70.39685 | 34993 ft | 475 kts | 189° |
| 2026-04-25 20:10 | -22.96645 | -70.40276 | 34992 ft | 475 kts | 189° |
| 2026-04-25 20:10 | -23.03224 | -70.40865 | 34989 ft | 475 kts | 190° |
| 2026-04-25 20:11 | -23.09826 | -70.41457 | 34990 ft | 476 kts | 190° |
| 2026-04-25 20:11 | -23.16458 | -70.42052 | 34993 ft | 475 kts | 190° |
| 2026-04-25 20:12 | -23.23045 | -70.42643 | 34995 ft | 475 kts | 190° |
| 2026-04-25 20:12 | -23.28591 | -70.43142 | 34990 ft | 475 kts | 190° |
| 2026-04-25 20:13 | -23.36298 | -70.43834 | 34990 ft | 475 kts | 190° |
| 2026-04-25 20:13 | -23.42851 | -70.44398 | 34979 ft | 474 kts | 189° |
| 2026-04-25 20:14 | -23.49499 | -70.44327 | 34970 ft | 483 kts | 180° |
| 2026-04-25 20:14 | -23.56209 | -70.43273 | 34965 ft | 488 kts | 175° |
| 2026-04-25 20:15 | -23.62869 | -70.41902 | 34966 ft | 488 kts | 174° |
| 2026-04-25 20:15 | -23.69525 | -70.40514 | 34961 ft | 485 kts | 175° |
| 2026-04-25 20:16 | -23.76208 | -70.39173 | 34957 ft | 485 kts | 175° |
| 2026-04-25 20:16 | -23.82866 | -70.37873 | 34967 ft | 485 kts | 175° |
| 2026-04-25 20:17 | -23.89507 | -70.36593 | 34978 ft | 486 kts | 176° |
| 2026-04-25 20:17 | -23.96165 | -70.35314 | 34987 ft | 484 kts | 176° |
| 2026-04-25 20:18 | -24.02856 | -70.34031 | 35013 ft | 487 kts | 176° |
| 2026-04-25 20:18 | -24.09512 | -70.32751 | 35043 ft | 485 kts | 176° |
| 2026-04-25 20:19 | -24.16171 | -70.31465 | 35102 ft | 485 kts | 176° |
| 2026-04-25 20:19 | -24.22838 | -70.30179 | 35170 ft | 484 kts | 176° |
| 2026-04-25 20:20 | -24.29488 | -70.28895 | 35218 ft | 486 kts | 176° |
| 2026-04-25 20:20 | -24.36180 | -70.27602 | 35270 ft | 486 kts | 176° |
| 2026-04-25 20:21 | -24.42845 | -70.26311 | 35297 ft | 485 kts | 176° |
| 2026-04-25 20:21 | -24.49478 | -70.25024 | 35325 ft | 484 kts | 176° |
| 2026-04-25 20:22 | -24.55046 | -70.23946 | 35334 ft | 486 kts | 176° |
| 2026-04-25 20:22 | -24.62804 | -70.22440 | 35328 ft | 486 kts | 176° |
| 2026-04-25 20:23 | -24.69459 | -70.21146 | 35338 ft | 486 kts | 176° |
| 2026-04-25 20:23 | -24.76140 | -70.19933 | 35347 ft | 482 kts | 179° |
| 2026-04-25 20:24 | -24.82776 | -70.19581 | 35337 ft | 471 kts | 189° |
| 2026-04-25 20:24 | -24.89281 | -70.20052 | 35343 ft | 467 kts | 192° |
| 2026-04-25 20:25 | -24.95741 | -70.20728 | 35345 ft | 467 kts | 193° |
| 2026-04-25 20:25 | -25.02241 | -70.21401 | 35338 ft | 467 kts | 193° |
| 2026-04-25 20:26 | -25.08705 | -70.22030 | 35302 ft | 469 kts | 193° |
| 2026-04-25 20:26 | -25.15253 | -70.22635 | 35273 ft | 468 kts | 192° |
| 2026-04-25 20:27 | -25.21740 | -70.23216 | 35234 ft | 469 kts | 192° |
| 2026-04-25 20:27 | -25.28228 | -70.23796 | 35202 ft | 468 kts | 192° |
| 2026-04-25 20:28 | -25.34754 | -70.24377 | 35181 ft | 468 kts | 192° |
| 2026-04-25 20:28 | -25.41252 | -70.24957 | 35162 ft | 469 kts | 193° |
| 2026-04-25 20:29 | -25.47777 | -70.25537 | 35144 ft | 469 kts | 193° |
| 2026-04-25 20:29 | -25.54307 | -70.26121 | 35140 ft | 470 kts | 193° |
| 2026-04-25 20:30 | -25.60863 | -70.26705 | 35115 ft | 470 kts | 193° |
| 2026-04-25 20:30 | -25.67383 | -70.27287 | 35096 ft | 469 kts | 193° |
| 2026-04-25 20:31 | -25.73894 | -70.27872 | 35095 ft | 470 kts | 193° |
| 2026-04-25 20:31 | -25.80428 | -70.28458 | 35082 ft | 470 kts | 193° |
| 2026-04-25 20:32 | -25.86960 | -70.29045 | 35066 ft | 470 kts | 193° |
| 2026-04-25 20:32 | -25.93516 | -70.29635 | 35056 ft | 471 kts | 193° |
| 2026-04-25 20:33 | -26.00078 | -70.30226 | 35045 ft | 471 kts | 193° |
| 2026-04-25 20:33 | -26.05496 | -70.30711 | 35051 ft | 469 kts | 193° |
| 2026-04-25 20:34 | -26.13109 | -70.31402 | 35057 ft | 470 kts | 193° |
| 2026-04-25 20:34 | -26.19673 | -70.32004 | 35063 ft | 470 kts | 194° |
| 2026-04-25 20:35 | -26.26185 | -70.32604 | 35066 ft | 470 kts | 194° |
| 2026-04-25 20:35 | -26.32717 | -70.33205 | 35073 ft | 470 kts | 194° |
| 2026-04-25 20:36 | -26.39236 | -70.33807 | 35078 ft | 470 kts | 194° |
| 2026-04-25 20:36 | -26.45757 | -70.34408 | 35085 ft | 471 kts | 194° |
| 2026-04-25 20:37 | -26.52275 | -70.35006 | 35097 ft | 469 kts | 194° |
| 2026-04-25 20:37 | -26.58782 | -70.35607 | 35101 ft | 468 kts | 194° |
| 2026-04-25 20:38 | -26.65301 | -70.36211 | 35112 ft | 470 kts | 194° |
| 2026-04-25 20:38 | -26.71842 | -70.36817 | 35120 ft | 469 kts | 194° |
| 2026-04-25 20:39 | -26.78311 | -70.37415 | 35128 ft | 469 kts | 195° |
| 2026-04-25 20:39 | -26.83750 | -70.37921 | 35133 ft | 470 kts | 195° |
| 2026-04-25 20:40 | -26.91373 | -70.38627 | 35137 ft | 468 kts | 195° |
| 2026-04-25 20:40 | -26.97898 | -70.39236 | 35145 ft | 470 kts | 195° |
| 2026-04-25 20:41 | -27.04418 | -70.39841 | 35147 ft | 469 kts | 195° |
| 2026-04-25 20:41 | -27.10923 | -70.40448 | 35132 ft | 467 kts | 195° |
| 2026-04-25 20:42 | -27.17383 | -70.41052 | 35119 ft | 468 kts | 195° |
| 2026-04-25 20:42 | -27.23885 | -70.41660 | 35107 ft | 467 kts | 195° |
| 2026-04-25 20:43 | -27.30404 | -70.42274 | 35098 ft | 469 kts | 196° |
| 2026-04-25 20:43 | -27.36905 | -70.42883 | 35084 ft | 465 kts | 196° |
| 2026-04-25 20:44 | -27.43354 | -70.43485 | 35067 ft | 467 kts | 196° |
| 2026-04-25 20:44 | -27.49858 | -70.44097 | 35055 ft | 467 kts | 196° |
| 2026-04-25 20:45 | -27.56364 | -70.44714 | 35066 ft | 467 kts | 196° |
| 2026-04-25 20:45 | -27.62810 | -70.45317 | 35062 ft | 464 kts | 196° |
| 2026-04-25 20:46 | -27.69314 | -70.45930 | 35060 ft | 465 kts | 197° |
| 2026-04-25 20:46 | -27.75747 | -70.46539 | 35053 ft | 465 kts | 197° |
| 2026-04-25 20:47 | -27.82215 | -70.47151 | 35057 ft | 464 kts | 197° |
| 2026-04-25 20:47 | -27.88686 | -70.47768 | 35063 ft | 467 kts | 197° |
| 2026-04-25 20:48 | -27.95129 | -70.48377 | 35070 ft | 464 kts | 197° |
| 2026-04-25 20:48 | -28.01576 | -70.48989 | 35069 ft | 464 kts | 197° |
| 2026-04-25 20:49 | -28.08030 | -70.49601 | 35068 ft | 463 kts | 197° |
| 2026-04-25 20:49 | -28.14449 | -70.50205 | 35079 ft | 458 kts | 197° |
| 2026-04-25 20:50 | -28.20804 | -70.50813 | 35097 ft | 460 kts | 197° |
| 2026-04-25 20:50 | -28.27209 | -70.51435 | 35112 ft | 462 kts | 197° |
| 2026-04-25 20:51 | -28.33613 | -70.52040 | 35162 ft | 457 kts | 197° |
| 2026-04-25 20:51 | -28.39944 | -70.52640 | 35218 ft | 458 kts | 198° |
| 2026-04-25 20:52 | -28.45221 | -70.53147 | 35272 ft | 455 kts | 198° |
| 2026-04-25 20:52 | -28.52620 | -70.53854 | 35275 ft | 456 kts | 198° |
| 2026-04-25 20:53 | -28.59006 | -70.54456 | 35240 ft | 456 kts | 198° |
| 2026-04-25 20:53 | -28.65329 | -70.55045 | 35227 ft | 458 kts | 198° |
| 2026-04-25 20:54 | -28.71654 | -70.55634 | 35201 ft | 455 kts | 198° |
| 2026-04-25 20:54 | -28.77991 | -70.56224 | 35206 ft | 451 kts | 198° |
| 2026-04-25 20:55 | -28.84280 | -70.56816 | 35247 ft | 452 kts | 198° |
| 2026-04-25 20:55 | -28.90532 | -70.57405 | 35262 ft | 454 kts | 198° |
| 2026-04-25 20:56 | -28.96829 | -70.58004 | 35300 ft | 452 kts | 198° |
| 2026-04-25 20:56 | -29.03116 | -70.58617 | 35312 ft | 455 kts | 199° |
| 2026-04-25 20:57 | -29.09393 | -70.59217 | 35397 ft | 448 kts | 199° |
| 2026-04-25 20:57 | -29.15650 | -70.59828 | 35418 ft | 451 kts | 199° |
| 2026-04-25 20:58 | -29.21884 | -70.60431 | 35430 ft | 449 kts | 198° |
| 2026-04-25 20:58 | -29.28142 | -70.61040 | 35446 ft | 449 kts | 199° |
| 2026-04-25 20:59 | -29.34363 | -70.61645 | 35438 ft | 446 kts | 199° |
| 2026-04-25 20:59 | -29.40592 | -70.62255 | 35432 ft | 450 kts | 199° |
| 2026-04-25 21:00 | -29.45816 | -70.62769 | 35438 ft | 448 kts | 199° |
| 2026-04-25 21:01 | -29.56200 | -70.63779 | 35399 ft | 447 kts | 199° |
| 2026-04-25 21:01 | -29.62448 | -70.64386 | 35345 ft | 446 kts | 198° |
| 2026-04-25 21:02 | -29.68606 | -70.64980 | 35337 ft | 445 kts | 199° |
| 2026-04-25 21:02 | -29.74775 | -70.65585 | 35287 ft | 442 kts | 199° |
| 2026-04-25 21:03 | -29.80950 | -70.66196 | 35286 ft | 448 kts | 199° |
| 2026-04-25 21:03 | -29.87137 | -70.66802 | 35314 ft | 444 kts | 199° |
| 2026-04-25 21:04 | -29.93296 | -70.67404 | 35244 ft | 440 kts | 199° |
| 2026-04-25 21:04 | -29.99395 | -70.68000 | 35268 ft | 441 kts | 199° |
| 2026-04-25 21:05 | -30.05568 | -70.68621 | 35273 ft | 444 kts | 199° |
| 2026-04-25 21:05 | -30.11739 | -70.69232 | 35277 ft | 445 kts | 199° |
| 2026-04-25 21:06 | -30.17946 | -70.69847 | 35339 ft | 445 kts | 199° |
| 2026-04-25 21:06 | -30.24130 | -70.70452 | 35385 ft | 443 kts | 199° |
| 2026-04-25 21:07 | -30.30284 | -70.71062 | 35356 ft | 443 kts | 199° |
| 2026-04-25 21:07 | -30.36471 | -70.71684 | 35368 ft | 450 kts | 199° |
| 2026-04-25 21:08 | -30.42637 | -70.72289 | 35344 ft | 444 kts | 198° |
| 2026-04-25 21:08 | -30.48826 | -70.72909 | 35343 ft | 448 kts | 199° |
| 2026-04-25 21:09 | -30.58136 | -70.73834 | 35319 ft | 449 kts | 199° |
| 2026-04-25 21:09 | -30.64342 | -70.74445 | 35262 ft | 447 kts | 198° |
| 2026-04-25 21:10 | -30.70556 | -70.75046 | 35246 ft | 452 kts | 198° |
| 2026-04-25 21:10 | -30.76754 | -70.75642 | 35170 ft | 449 kts | 198° |
| 2026-04-25 21:11 | -30.82940 | -70.76232 | 35207 ft | 446 kts | 198° |
| 2026-04-25 21:11 | -30.89117 | -70.76834 | 35244 ft | 446 kts | 198° |
| 2026-04-25 21:12 | -30.95363 | -70.77447 | 35230 ft | 447 kts | 198° |
| 2026-04-25 21:12 | -31.00506 | -70.77950 | 35253 ft | 447 kts | 198° |
| 2026-04-25 21:13 | -31.07772 | -70.78665 | 35272 ft | 448 kts | 198° |
| 2026-04-25 21:13 | -31.13981 | -70.79270 | 35304 ft | 449 kts | 198° |
| 2026-04-25 21:14 | -31.20155 | -70.79871 | 35323 ft | 444 kts | 198° |
| 2026-04-25 21:14 | -31.26360 | -70.80482 | 35359 ft | 449 kts | 198° |
| 2026-04-25 21:15 | -31.32590 | -70.81095 | 35378 ft | 450 kts | 197° |
| 2026-04-25 21:15 | -31.38761 | -70.81689 | 35299 ft | 432 kts | 198° |
| 2026-04-25 21:16 | -31.41728 | -70.81960 | 35002 ft | 423 kts | 198° |
| 2026-04-25 21:16 | -31.44609 | -70.82230 | 34627 ft | 416 kts | 198° |
| 2026-04-25 21:16 | -31.50398 | -70.82812 | 34250 ft | 424 kts | 198° |
| 2026-04-25 21:17 | -31.53304 | -70.83120 | 33935 ft | 422 kts | 197° |
| 2026-04-25 21:17 | -31.56207 | -70.83412 | 33475 ft | 418 kts | 197° |
| 2026-04-25 21:17 | -31.59112 | -70.83698 | 32980 ft | 414 kts | 197° |
| 2026-04-25 21:17 | -31.61969 | -70.83978 | 32472 ft | 411 kts | 197° |
| 2026-04-25 21:18 | -31.64811 | -70.84257 | 31968 ft | 407 kts | 196° |
| 2026-04-25 21:18 | -31.67594 | -70.84533 | 31455 ft | 404 kts | 196° |
| 2026-04-25 21:18 | -31.70404 | -70.84811 | 30972 ft | 400 kts | 196° |
| 2026-04-25 21:18 | -31.73147 | -70.85081 | 30516 ft | 396 kts | 196° |
| 2026-04-25 21:19 | -31.75900 | -70.85294 | 30014 ft | 396 kts | 193° |
| 2026-04-25 21:19 | -31.78633 | -70.85323 | 29497 ft | 397 kts | 190° |
| 2026-04-25 21:19 | -31.81403 | -70.85239 | 29026 ft | 394 kts | 188° |
| 2026-04-25 21:19 | -31.84138 | -70.85109 | 28563 ft | 390 kts | 188° |
| 2026-04-25 21:20 | -31.86834 | -70.84972 | 28101 ft | 386 kts | 188° |
| 2026-04-25 21:20 | -31.88608 | -70.84884 | 27788 ft | 383 kts | 188° |
| 2026-04-25 21:20 | -31.92114 | -70.84725 | 27165 ft | 378 kts | 187° |
| 2026-04-25 21:20 | -31.94739 | -70.84615 | 26678 ft | 374 kts | 187° |
| 2026-04-25 21:21 | -31.97334 | -70.84514 | 26205 ft | 370 kts | 187° |
| 2026-04-25 21:21 | -31.99875 | -70.84417 | 25767 ft | 366 kts | 187° |
| 2026-04-25 21:21 | -32.02422 | -70.84324 | 25318 ft | 362 kts | 187° |
| 2026-04-25 21:21 | -32.04910 | -70.84235 | 24847 ft | 359 kts | 187° |
| 2026-04-25 21:22 | -32.07403 | -70.84146 | 24370 ft | 355 kts | 187° |
| 2026-04-25 21:22 | -32.09856 | -70.84060 | 23913 ft | 351 kts | 186° |
| 2026-04-25 21:22 | -32.12284 | -70.83974 | 23447 ft | 348 kts | 186° |
| 2026-04-25 21:22 | -32.14706 | -70.83888 | 22974 ft | 345 kts | 186° |
| 2026-04-25 21:23 | -32.17075 | -70.83805 | 22535 ft | 341 kts | 185° |
| 2026-04-25 21:23 | -32.19427 | -70.83722 | 22103 ft | 337 kts | 185° |
| 2026-04-25 21:23 | -32.21691 | -70.83642 | 21653 ft | 335 kts | 185° |
| 2026-04-25 21:23 | -32.23945 | -70.83562 | 21215 ft | 332 kts | 184° |
| 2026-04-25 21:24 | -32.26257 | -70.83479 | 20755 ft | 330 kts | 184° |
| 2026-04-25 21:24 | -32.28540 | -70.83398 | 20312 ft | 327 kts | 184° |
| 2026-04-25 21:24 | -32.30806 | -70.83317 | 19864 ft | 325 kts | 184° |
| 2026-04-25 21:24 | -32.33040 | -70.83238 | 19436 ft | 324 kts | 183° |
| 2026-04-25 21:25 | -32.35318 | -70.83160 | 18992 ft | 330 kts | 183° |
| 2026-04-25 21:25 | -32.37597 | -70.83081 | 18521 ft | 329 kts | 182° |
| 2026-04-25 21:25 | -32.39897 | -70.82998 | 18068 ft | 326 kts | 182° |
| 2026-04-25 21:25 | -32.42135 | -70.82916 | 17636 ft | 323 kts | 181° |
| 2026-04-25 21:26 | -32.44392 | -70.82832 | 17181 ft | 321 kts | 181° |
| 2026-04-25 21:26 | -32.46619 | -70.82752 | 16756 ft | 319 kts | 181° |
| 2026-04-25 21:26 | -32.48812 | -70.82674 | 16284 ft | 317 kts | 181° |
| 2026-04-25 21:26 | -32.51025 | -70.82594 | 15883 ft | 320 kts | 181° |
| 2026-04-25 21:27 | -32.53284 | -70.82515 | 15458 ft | 325 kts | 180° |
| 2026-04-25 21:27 | -32.55521 | -70.82435 | 14983 ft | 324 kts | 180° |
| 2026-04-25 21:27 | -32.57756 | -70.82354 | 14522 ft | 322 kts | 180° |
| 2026-04-25 21:27 | -32.59983 | -70.82272 | 14109 ft | 319 kts | 180° |
| 2026-04-25 21:28 | -32.62192 | -70.82192 | 13704 ft | 317 kts | 179° |
| 2026-04-25 21:28 | -32.64415 | -70.82111 | 13259 ft | 316 kts | 179° |
| 2026-04-25 21:28 | -32.66589 | -70.82033 | 12822 ft | 315 kts | 179° |
| 2026-04-25 21:28 | -32.68767 | -70.81954 | 12411 ft | 313 kts | 179° |
| 2026-04-25 21:29 | -32.70925 | -70.81876 | 12140 ft | 305 kts | 179° |
| 2026-04-25 21:29 | -32.73005 | -70.81799 | 12061 ft | 292 kts | 179° |
| 2026-04-25 21:29 | -32.75011 | -70.81724 | 11920 ft | 282 kts | 179° |
| 2026-04-25 21:29 | -32.76951 | -70.81654 | 11615 ft | 278 kts | 179° |
| 2026-04-25 21:30 | -32.78895 | -70.81584 | 11268 ft | 278 kts | 179° |
| 2026-04-25 21:30 | -32.80810 | -70.81516 | 10924 ft | 278 kts | 179° |
| 2026-04-25 21:30 | -32.82756 | -70.81446 | 10536 ft | 278 kts | 178° |
| 2026-04-25 21:30 | -32.84032 | -70.81400 | 10322 ft | 277 kts | 178° |
| 2026-04-25 21:31 | -32.86596 | -70.81306 | 9854 ft | 275 kts | 178° |
| 2026-04-25 21:31 | -32.88509 | -70.81236 | 9536 ft | 274 kts | 178° |
| 2026-04-25 21:31 | -32.90409 | -70.81167 | 9198 ft | 273 kts | 178° |
| 2026-04-25 21:31 | -32.92312 | -70.81095 | 8851 ft | 272 kts | 178° |
| 2026-04-25 21:32 | -32.94202 | -70.81004 | 8496 ft | 272 kts | 177° |
| 2026-04-25 21:32 | -32.96085 | -70.80899 | 8176 ft | 271 kts | 177° |
| 2026-04-25 21:32 | -32.97961 | -70.80794 | 7839 ft | 270 kts | 177° |
| 2026-04-25 21:32 | -32.99839 | -70.80691 | 7487 ft | 269 kts | 177° |
| 2026-04-25 21:33 | -33.01699 | -70.80590 | 7209 ft | 265 kts | 176° |
| 2026-04-25 21:33 | -33.03508 | -70.80494 | 7079 ft | 255 kts | 176° |
| 2026-04-25 21:33 | -33.05262 | -70.80402 | 6974 ft | 244 kts | 176° |
| 2026-04-25 21:33 | -33.06929 | -70.80314 | 6717 ft | 243 kts | 177° |
| 2026-04-25 21:34 | -33.08631 | -70.80223 | 6402 ft | 243 kts | 177° |
| 2026-04-25 21:34 | -33.10315 | -70.80134 | 6103 ft | 243 kts | 177° |
| 2026-04-25 21:34 | -33.12006 | -70.80045 | 5816 ft | 242 kts | 177° |
| 2026-04-25 21:34 | -33.13693 | -70.79956 | 5573 ft | 239 kts | 177° |
| 2026-04-25 21:35 | -33.15310 | -70.79873 | 5494 ft | 221 kts | 176° |
| 2026-04-25 21:35 | -33.16793 | -70.79791 | 5439 ft | 207 kts | 176° |
| 2026-04-25 21:35 | -33.18203 | -70.79704 | 5340 ft | 201 kts | 176° |
| 2026-04-25 21:35 | -33.19581 | -70.79627 | 5020 ft | 197 kts | 176° |
| 2026-04-25 21:36 | -33.20925 | -70.79558 | 4782 ft | 185 kts | 176° |
| 2026-04-25 21:36 | -33.22162 | -70.79492 | 4532 ft | 176 kts | 176° |
| 2026-04-25 21:36 | -33.23328 | -70.79430 | 4412 ft | 160 kts | 176° |
| 2026-04-25 21:36 | -33.24477 | -70.79367 | 4117 ft | 163 kts | 176° |
| 2026-04-25 21:37 | -33.25582 | -70.79308 | 3849 ft | 155 kts | 176° |
| 2026-04-25 21:37 | -33.26297 | -70.79277 | 3637 ft | 157 kts | 176° |
| 2026-04-25 21:37 | -33.27750 | -70.79238 | 3348 ft | 152 kts | 178° |
| 2026-04-25 21:37 | -33.28800 | -70.79205 | 3154 ft | 152 kts | 176° |
| 2026-04-25 21:38 | -33.29855 | -70.79126 | 2990 ft | 149 kts | 174° |
| 2026-04-25 21:38 | -33.30873 | -70.79037 | 2805 ft | 147 kts | 175° |
| 2026-04-25 21:38 | -33.31900 | -70.78982 | 2577 ft | 147 kts | 177° |
| 2026-04-25 21:38 | -33.32913 | -70.78970 | 2374 ft | 142 kts | 178° |
| 2026-04-25 21:39 | -33.33892 | -70.78928 | 2206 ft | 140 kts | 175° |
| 2026-04-25 21:39 | -33.34863 | -70.78837 | 2030 ft | 141 kts | 173° |
| 2026-04-25 21:39 | -33.35857 | -70.78762 | 1868 ft | 140 kts | 178° |
| 2026-04-25 21:39 | -33.37139 | -70.78690 | 1668 ft | 138 kts | 176° |
| 2026-04-25 21:40 | -33.37778 | -70.78664 | 1595 ft | 137 kts | 176° |
| 2026-04-25 21:40 | -33.38645 | -70.78612 | 1583 ft | 100 kts | 176° |
| 2026-04-25 21:40 | -33.39156 | -70.78582 | 1586 ft | 48 kts | 179° |
| 2026-04-25 21:40 | -33.39382 | -70.78577 | 1587 ft | 26 kts | 182° |
| 2026-04-25 21:41 | -33.39543 | -70.78609 | 1587 ft | 22 kts | 200° |
| 2026-04-25 21:41 | -33.39620 | -70.78651 | 1587 ft | 0 kts | 207° |
| 2026-04-25 21:42 | -33.39627 | -70.78656 | 1587 ft | 5 kts | 207° |
| 2026-04-25 21:42 | -33.39699 | -70.78700 | 1588 ft | 16 kts | 206° |
| 2026-04-25 21:42 | -33.39752 | -70.78816 | 1588 ft | 18 kts | 268° |
| 2026-04-25 21:43 | -33.39806 | -70.78934 | 1589 ft | 16 kts | 214° |
| 2026-04-25 21:43 | -33.39870 | -70.78957 | 1588 ft | 0 kts | 192° |
| 2026-04-25 21:43 | -33.39872 | -70.78957 | 1588 ft | 0 kts | 192° |